sensor_id;sensor_type;location;lat;lon;timestamp;noise_LAeq;noise_LA_min;noise_LA_max;noise_LA01;noise_LA95
73342;Laerm;61578;52.002;5.468;2023-05-28T00:00:03;41.36;38.36;45.80;;
73342;Laerm;61578;52.002;5.468;2023-05-28T00:00:34;41.20;38.79;45.82;;
73342;Laerm;61578;52.002;5.468;2023-05-28T00:01:05;41.19;38.29;46.43;;
73342;Laerm;61578;52.002;5.468;2023-05-28T00:01:36;41.32;38.47;47.21;;
73342;Laerm;61578;52.002;5.468;2023-05-28T00:02:07;41.40;37.71;45.69;;
73342;Laerm;61578;52.002;5.468;2023-05-28T00:02:38;41.36;38.75;46.97;;
73342;Laerm;61578;52.002;5.468;2023-05-28T00:03:11;41.37;38.26;45.68;;
73342;Laerm;61578;52.002;5.468;2023-05-28T00:03:41;41.32;37.71;45.31;;
73342;Laerm;61578;52.002;5.468;2023-05-28T00:04:12;41.44;38.25;46.42;;
73342;Laerm;61578;52.002;5.468;2023-05-28T00:04:42;41.34;38.30;46.26;;
73342;Laerm;61578;52.002;5.468;2023-05-28T00:05:13;41.22;38.32;46.09;;
73342;Laerm;61578;52.002;5.468;2023-05-28T00:05:44;41.41;38.67;45.35;;
73342;Laerm;61578;52.002;5.468;2023-05-28T00:06:15;41.22;38.37;45.40;;
73342;Laerm;61578;52.002;5.468;2023-05-28T00:06:46;41.37;38.50;45.78;;
73342;Laerm;61578;52.002;5.468;2023-05-28T00:07:19;41.17;37.94;45.17;;
73342;Laerm;61578;52.002;5.468;2023-05-28T00:07:51;41.06;37.82;45.54;;
73342;Laerm;61578;52.002;5.468;2023-05-28T00:08:22;41.24;37.81;45.38;;
73342;Laerm;61578;52.002;5.468;2023-05-28T00:08:53;41.22;38.16;45.16;;
73342;Laerm;61578;52.002;5.468;2023-05-28T00:09:24;41.34;38.07;45.68;;
73342;Laerm;61578;52.002;5.468;2023-05-28T00:09:55;41.30;38.24;45.75;;
73342;Laerm;61578;52.002;5.468;2023-05-28T00:10:26;41.32;38.54;46.33;;
73342;Laerm;61578;52.002;5.468;2023-05-28T00:11:00;41.36;38.18;45.80;;
73342;Laerm;61578;52.002;5.468;2023-05-28T00:11:31;41.21;38.38;45.36;;
73342;Laerm;61578;52.002;5.468;2023-05-28T00:12:01;41.38;38.14;46.04;;
73342;Laerm;61578;52.002;5.468;2023-05-28T00:12:32;41.27;38.10;45.60;;
73342;Laerm;61578;52.002;5.468;2023-05-28T00:13:03;41.30;38.26;46.24;;
73342;Laerm;61578;52.002;5.468;2023-05-28T00:13:33;41.21;37.66;46.56;;
73342;Laerm;61578;52.002;5.468;2023-05-28T00:14:04;41.36;38.47;46.63;;
73342;Laerm;61578;52.002;5.468;2023-05-28T00:14:35;41.23;37.97;46.67;;
73342;Laerm;61578;52.002;5.468;2023-05-28T00:15:06;41.02;38.09;45.90;;
73342;Laerm;61578;52.002;5.468;2023-05-28T00:15:38;41.11;38.17;45.19;;
73342;Laerm;61578;52.002;5.468;2023-05-28T00:16:08;41.29;38.27;46.58;;
73342;Laerm;61578;52.002;5.468;2023-05-28T00:16:39;41.11;37.96;45.31;;
73342;Laerm;61578;52.002;5.468;2023-05-28T00:17:11;41.27;37.52;45.84;;
73342;Laerm;61578;52.002;5.468;2023-05-28T00:17:41;41.27;37.59;45.01;;
73342;Laerm;61578;52.002;5.468;2023-05-28T00:18:12;40.95;37.48;45.25;;
73342;Laerm;61578;52.002;5.468;2023-05-28T00:18:45;41.12;37.69;46.56;;
73342;Laerm;61578;52.002;5.468;2023-05-28T00:19:15;41.10;37.93;47.17;;
73342;Laerm;61578;52.002;5.468;2023-05-28T00:19:46;41.23;38.25;46.07;;
73342;Laerm;61578;52.002;5.468;2023-05-28T00:20:16;41.18;37.86;46.19;;
73342;Laerm;61578;52.002;5.468;2023-05-28T00:20:47;41.30;38.12;45.55;;
73342;Laerm;61578;52.002;5.468;2023-05-28T00:21:21;41.23;38.34;45.63;;
73342;Laerm;61578;52.002;5.468;2023-05-28T00:21:52;41.14;38.08;45.43;;
73342;Laerm;61578;52.002;5.468;2023-05-28T00:22:23;41.29;37.65;46.29;;
73342;Laerm;61578;52.002;5.468;2023-05-28T00:22:53;41.27;38.15;46.84;;
73342;Laerm;61578;52.002;5.468;2023-05-28T00:23:24;41.07;37.60;45.16;;
73342;Laerm;61578;52.002;5.468;2023-05-28T00:23:55;41.15;37.97;45.57;;
73342;Laerm;61578;52.002;5.468;2023-05-28T00:24:25;41.14;38.37;45.76;;
73342;Laerm;61578;52.002;5.468;2023-05-28T00:24:56;41.08;37.94;45.33;;
73342;Laerm;61578;52.002;5.468;2023-05-28T00:25:27;41.21;38.29;45.58;;
73342;Laerm;61578;52.002;5.468;2023-05-28T00:25:58;41.24;38.27;45.44;;
73342;Laerm;61578;52.002;5.468;2023-05-28T00:26:29;41.08;37.51;44.97;;
73342;Laerm;61578;52.002;5.468;2023-05-28T00:27:01;41.63;38.49;45.69;;
73342;Laerm;61578;52.002;5.468;2023-05-28T00:27:33;41.31;38.19;46.79;;
73342;Laerm;61578;52.002;5.468;2023-05-28T00:28:04;41.25;38.02;45.19;;
73342;Laerm;61578;52.002;5.468;2023-05-28T00:28:34;41.11;38.18;46.54;;
73342;Laerm;61578;52.002;5.468;2023-05-28T00:29:05;41.00;38.22;45.12;;
73342;Laerm;61578;52.002;5.468;2023-05-28T00:29:36;41.22;38.16;45.55;;
73342;Laerm;61578;52.002;5.468;2023-05-28T00:30:07;41.27;38.14;45.60;;
73342;Laerm;61578;52.002;5.468;2023-05-28T00:30:37;41.24;38.59;46.28;;
73342;Laerm;61578;52.002;5.468;2023-05-28T00:31:08;41.19;37.30;46.49;;
73342;Laerm;61578;52.002;5.468;2023-05-28T00:31:39;41.10;38.08;45.16;;
73342;Laerm;61578;52.002;5.468;2023-05-28T00:32:09;41.20;38.46;45.11;;
73342;Laerm;61578;52.002;5.468;2023-05-28T00:32:40;41.08;37.68;45.72;;
73342;Laerm;61578;52.002;5.468;2023-05-28T00:33:11;41.07;37.96;45.80;;
73342;Laerm;61578;52.002;5.468;2023-05-28T00:33:41;41.22;37.83;46.06;;
73342;Laerm;61578;52.002;5.468;2023-05-28T00:34:13;41.24;38.21;45.93;;
73342;Laerm;61578;52.002;5.468;2023-05-28T00:34:47;41.02;38.01;46.67;;
73342;Laerm;61578;52.002;5.468;2023-05-28T00:35:17;41.19;38.18;46.60;;
73342;Laerm;61578;52.002;5.468;2023-05-28T00:35:48;41.49;38.67;45.12;;
73342;Laerm;61578;52.002;5.468;2023-05-28T00:36:25;41.22;38.06;46.32;;
73342;Laerm;61578;52.002;5.468;2023-05-28T00:36:56;41.30;37.78;45.47;;
73342;Laerm;61578;52.002;5.468;2023-05-28T00:37:26;41.25;37.62;47.27;;
73342;Laerm;61578;52.002;5.468;2023-05-28T00:37:57;41.23;38.07;45.06;;
73342;Laerm;61578;52.002;5.468;2023-05-28T00:38:28;41.30;38.15;47.03;;
73342;Laerm;61578;52.002;5.468;2023-05-28T00:39:02;41.04;37.46;45.22;;
73342;Laerm;61578;52.002;5.468;2023-05-28T00:39:35;41.33;38.03;45.88;;
73342;Laerm;61578;52.002;5.468;2023-05-28T00:40:08;41.46;38.22;46.70;;
73342;Laerm;61578;52.002;5.468;2023-05-28T00:40:43;41.13;37.68;45.54;;
73342;Laerm;61578;52.002;5.468;2023-05-28T00:41:22;41.08;38.24;46.04;;
73342;Laerm;61578;52.002;5.468;2023-05-28T00:42:03;41.24;37.14;46.19;;
73342;Laerm;61578;52.002;5.468;2023-05-28T00:42:34;41.27;38.15;45.78;;
73342;Laerm;61578;52.002;5.468;2023-05-28T00:43:06;41.31;38.35;45.84;;
73342;Laerm;61578;52.002;5.468;2023-05-28T00:43:37;41.19;37.79;46.85;;
73342;Laerm;61578;52.002;5.468;2023-05-28T00:44:08;41.13;38.22;46.13;;
73342;Laerm;61578;52.002;5.468;2023-05-28T00:44:39;41.44;38.11;45.99;;
73342;Laerm;61578;52.002;5.468;2023-05-28T00:45:10;41.18;38.13;46.58;;
73342;Laerm;61578;52.002;5.468;2023-05-28T00:45:45;41.07;38.06;45.12;;
73342;Laerm;61578;52.002;5.468;2023-05-28T00:46:18;41.34;38.15;46.35;;
73342;Laerm;61578;52.002;5.468;2023-05-28T00:46:51;41.18;37.94;45.97;;
73342;Laerm;61578;52.002;5.468;2023-05-28T00:47:22;41.32;38.39;46.18;;
73342;Laerm;61578;52.002;5.468;2023-05-28T00:47:53;41.19;37.97;46.03;;
73342;Laerm;61578;52.002;5.468;2023-05-28T00:48:25;41.11;37.98;45.25;;
73342;Laerm;61578;52.002;5.468;2023-05-28T00:48:55;41.34;38.45;45.69;;
73342;Laerm;61578;52.002;5.468;2023-05-28T00:49:27;41.26;38.44;46.15;;
73342;Laerm;61578;52.002;5.468;2023-05-28T00:50:00;41.28;38.24;45.54;;
73342;Laerm;61578;52.002;5.468;2023-05-28T00:50:32;41.20;37.86;45.08;;
73342;Laerm;61578;52.002;5.468;2023-05-28T00:51:03;41.13;38.09;45.19;;
73342;Laerm;61578;52.002;5.468;2023-05-28T00:51:35;41.06;38.00;45.68;;
73342;Laerm;61578;52.002;5.468;2023-05-28T00:52:10;41.15;38.02;45.66;;
73342;Laerm;61578;52.002;5.468;2023-05-28T00:52:41;41.21;37.91;46.37;;
73342;Laerm;61578;52.002;5.468;2023-05-28T00:53:14;41.13;37.56;45.96;;
73342;Laerm;61578;52.002;5.468;2023-05-28T00:53:45;41.08;37.93;46.05;;
73342;Laerm;61578;52.002;5.468;2023-05-28T00:54:16;41.16;38.11;45.03;;
73342;Laerm;61578;52.002;5.468;2023-05-28T00:54:49;40.97;37.70;45.62;;
73342;Laerm;61578;52.002;5.468;2023-05-28T00:55:21;41.08;37.59;45.42;;
73342;Laerm;61578;52.002;5.468;2023-05-28T00:55:53;41.15;38.03;45.11;;
73342;Laerm;61578;52.002;5.468;2023-05-28T00:56:24;41.19;37.92;45.27;;
73342;Laerm;61578;52.002;5.468;2023-05-28T00:56:58;41.11;37.93;45.21;;
73342;Laerm;61578;52.002;5.468;2023-05-28T00:57:29;41.07;38.13;45.94;;
73342;Laerm;61578;52.002;5.468;2023-05-28T00:58:04;41.11;37.91;46.39;;
73342;Laerm;61578;52.002;5.468;2023-05-28T00:58:42;41.27;38.36;46.26;;
73342;Laerm;61578;52.002;5.468;2023-05-28T00:59:14;41.15;38.30;46.61;;
73342;Laerm;61578;52.002;5.468;2023-05-28T00:59:47;41.29;37.97;45.68;;
73342;Laerm;61578;52.002;5.468;2023-05-28T01:00:21;41.14;37.87;44.89;;
73342;Laerm;61578;52.002;5.468;2023-05-28T01:00:52;41.16;38.07;45.13;;
73342;Laerm;61578;52.002;5.468;2023-05-28T01:01:27;41.09;37.44;46.47;;
73342;Laerm;61578;52.002;5.468;2023-05-28T01:01:58;41.27;38.24;45.36;;
73342;Laerm;61578;52.002;5.468;2023-05-28T01:02:29;40.98;37.53;45.29;;
73342;Laerm;61578;52.002;5.468;2023-05-28T01:03:00;41.04;38.22;47.09;;
73342;Laerm;61578;52.002;5.468;2023-05-28T01:03:31;41.20;38.20;46.56;;
73342;Laerm;61578;52.002;5.468;2023-05-28T01:04:02;40.97;37.89;45.31;;
73342;Laerm;61578;52.002;5.468;2023-05-28T01:04:34;41.20;38.04;45.00;;
73342;Laerm;61578;52.002;5.468;2023-05-28T01:05:04;41.28;38.21;45.65;;
73342;Laerm;61578;52.002;5.468;2023-05-28T01:05:35;40.99;37.86;44.98;;
73342;Laerm;61578;52.002;5.468;2023-05-28T01:06:12;41.32;38.22;45.91;;
73342;Laerm;61578;52.002;5.468;2023-05-28T01:06:45;41.11;38.26;45.56;;
73342;Laerm;61578;52.002;5.468;2023-05-28T01:07:16;41.26;38.28;45.75;;
73342;Laerm;61578;52.002;5.468;2023-05-28T01:07:47;41.14;38.55;45.89;;
73342;Laerm;61578;52.002;5.468;2023-05-28T01:08:18;41.17;38.18;45.25;;
73342;Laerm;61578;52.002;5.468;2023-05-28T01:08:50;41.20;38.15;45.02;;
73342;Laerm;61578;52.002;5.468;2023-05-28T01:09:21;41.04;38.09;45.35;;
73342;Laerm;61578;52.002;5.468;2023-05-28T01:09:53;41.29;38.23;46.17;;
73342;Laerm;61578;52.002;5.468;2023-05-28T01:10:24;41.30;38.52;46.71;;
73342;Laerm;61578;52.002;5.468;2023-05-28T01:10:55;41.40;38.49;45.29;;
73342;Laerm;61578;52.002;5.468;2023-05-28T01:11:26;41.06;37.67;46.80;;
73342;Laerm;61578;52.002;5.468;2023-05-28T01:11:59;41.14;38.12;45.36;;
73342;Laerm;61578;52.002;5.468;2023-05-28T01:12:31;41.39;38.01;46.47;;
73342;Laerm;61578;52.002;5.468;2023-05-28T01:13:07;41.42;37.76;46.28;;
73342;Laerm;61578;52.002;5.468;2023-05-28T01:13:40;40.96;37.46;45.73;;
73342;Laerm;61578;52.002;5.468;2023-05-28T01:14:12;41.10;38.20;44.74;;
73342;Laerm;61578;52.002;5.468;2023-05-28T01:14:44;41.10;37.54;46.16;;
73342;Laerm;61578;52.002;5.468;2023-05-28T01:15:15;41.23;38.00;45.95;;
73342;Laerm;61578;52.002;5.468;2023-05-28T01:15:46;41.29;38.12;45.62;;
73342;Laerm;61578;52.002;5.468;2023-05-28T01:16:17;41.27;37.41;45.86;;
73342;Laerm;61578;52.002;5.468;2023-05-28T01:16:49;41.03;38.10;46.07;;
73342;Laerm;61578;52.002;5.468;2023-05-28T01:17:20;41.23;38.06;44.99;;
73342;Laerm;61578;52.002;5.468;2023-05-28T01:17:59;41.16;38.14;45.46;;
73342;Laerm;61578;52.002;5.468;2023-05-28T01:18:31;41.23;38.08;46.18;;
73342;Laerm;61578;52.002;5.468;2023-05-28T01:19:07;41.15;38.01;46.88;;
73342;Laerm;61578;52.002;5.468;2023-05-28T01:19:40;41.23;38.21;46.12;;
73342;Laerm;61578;52.002;5.468;2023-05-28T01:20:12;41.23;38.07;46.70;;
73342;Laerm;61578;52.002;5.468;2023-05-28T01:20:44;41.35;38.06;45.61;;
73342;Laerm;61578;52.002;5.468;2023-05-28T01:21:16;41.11;37.66;45.47;;
73342;Laerm;61578;52.002;5.468;2023-05-28T01:21:58;41.15;38.21;46.21;;
73342;Laerm;61578;52.002;5.468;2023-05-28T01:22:37;41.23;38.23;45.98;;
73342;Laerm;61578;52.002;5.468;2023-05-28T01:23:16;41.26;38.24;46.02;;
73342;Laerm;61578;52.002;5.468;2023-05-28T01:23:48;41.19;37.59;45.61;;
73342;Laerm;61578;52.002;5.468;2023-05-28T01:24:23;41.24;38.20;45.42;;
73342;Laerm;61578;52.002;5.468;2023-05-28T01:24:57;41.21;37.87;45.32;;
73342;Laerm;61578;52.002;5.468;2023-05-28T01:25:30;41.09;38.04;46.16;;
73342;Laerm;61578;52.002;5.468;2023-05-28T01:26:01;41.31;38.30;45.94;;
73342;Laerm;61578;52.002;5.468;2023-05-28T01:26:33;41.10;38.19;46.31;;
73342;Laerm;61578;52.002;5.468;2023-05-28T01:27:06;40.98;38.00;44.92;;
73342;Laerm;61578;52.002;5.468;2023-05-28T01:27:39;41.15;38.02;45.55;;
73342;Laerm;61578;52.002;5.468;2023-05-28T01:28:13;41.02;38.08;45.05;;
73342;Laerm;61578;52.002;5.468;2023-05-28T01:28:48;41.24;38.12;45.70;;
73342;Laerm;61578;52.002;5.468;2023-05-28T01:29:19;41.19;38.60;45.58;;
73342;Laerm;61578;52.002;5.468;2023-05-28T01:29:49;41.22;38.54;46.21;;
73342;Laerm;61578;52.002;5.468;2023-05-28T01:30:23;41.30;38.22;45.27;;
73342;Laerm;61578;52.002;5.468;2023-05-28T01:30:54;41.02;37.68;45.16;;
73342;Laerm;61578;52.002;5.468;2023-05-28T01:31:24;41.08;37.88;46.90;;
73342;Laerm;61578;52.002;5.468;2023-05-28T01:31:55;41.14;37.89;45.92;;
73342;Laerm;61578;52.002;5.468;2023-05-28T01:32:26;41.27;38.71;46.08;;
73342;Laerm;61578;52.002;5.468;2023-05-28T01:32:56;40.94;37.64;44.92;;
73342;Laerm;61578;52.002;5.468;2023-05-28T01:33:27;41.24;37.67;46.34;;
73342;Laerm;61578;52.002;5.468;2023-05-28T01:33:58;41.11;38.03;45.45;;
73342;Laerm;61578;52.002;5.468;2023-05-28T01:34:29;41.21;38.11;46.55;;
73342;Laerm;61578;52.002;5.468;2023-05-28T01:35:00;41.03;38.09;46.16;;
73342;Laerm;61578;52.002;5.468;2023-05-28T01:35:31;41.17;38.23;46.34;;
73342;Laerm;61578;52.002;5.468;2023-05-28T01:36:12;41.23;37.89;45.52;;
73342;Laerm;61578;52.002;5.468;2023-05-28T01:36:55;41.12;37.71;45.16;;
73342;Laerm;61578;52.002;5.468;2023-05-28T01:37:28;41.20;38.37;45.50;;
73342;Laerm;61578;52.002;5.468;2023-05-28T01:38:04;41.14;37.59;46.42;;
73342;Laerm;61578;52.002;5.468;2023-05-28T01:38:40;41.09;38.32;45.36;;
73342;Laerm;61578;52.002;5.468;2023-05-28T01:39:16;41.42;37.88;45.34;;
73342;Laerm;61578;52.002;5.468;2023-05-28T01:39:53;41.18;37.29;45.91;;
73342;Laerm;61578;52.002;5.468;2023-05-28T01:40:26;41.12;38.09;45.82;;
73342;Laerm;61578;52.002;5.468;2023-05-28T01:41:00;41.34;38.04;45.34;;
73342;Laerm;61578;52.002;5.468;2023-05-28T01:41:31;41.29;38.11;46.16;;
73342;Laerm;61578;52.002;5.468;2023-05-28T01:42:03;41.14;37.94;44.94;;
73342;Laerm;61578;52.002;5.468;2023-05-28T01:42:37;41.11;38.16;45.71;;
73342;Laerm;61578;52.002;5.468;2023-05-28T01:43:08;41.33;37.83;45.87;;
73342;Laerm;61578;52.002;5.468;2023-05-28T01:43:40;41.22;38.00;46.75;;
73342;Laerm;61578;52.002;5.468;2023-05-28T01:44:15;41.12;38.13;46.14;;
73342;Laerm;61578;52.002;5.468;2023-05-28T01:44:51;41.34;38.31;45.56;;
73342;Laerm;61578;52.002;5.468;2023-05-28T01:45:24;41.30;37.90;52.76;;
73342;Laerm;61578;52.002;5.468;2023-05-28T01:45:55;41.17;38.18;45.43;;
73342;Laerm;61578;52.002;5.468;2023-05-28T01:46:27;41.39;38.42;45.88;;
73342;Laerm;61578;52.002;5.468;2023-05-28T01:46:59;41.25;37.78;46.18;;
73342;Laerm;61578;52.002;5.468;2023-05-28T01:47:30;41.25;38.44;45.01;;
73342;Laerm;61578;52.002;5.468;2023-05-28T01:48:01;41.40;38.23;45.33;;
73342;Laerm;61578;52.002;5.468;2023-05-28T01:48:34;41.28;38.02;45.67;;
73342;Laerm;61578;52.002;5.468;2023-05-28T01:49:06;41.26;38.04;46.07;;
73342;Laerm;61578;52.002;5.468;2023-05-28T01:49:37;41.05;38.28;46.15;;
73342;Laerm;61578;52.002;5.468;2023-05-28T01:50:10;41.25;38.41;46.14;;
73342;Laerm;61578;52.002;5.468;2023-05-28T01:50:43;41.16;38.39;45.66;;
73342;Laerm;61578;52.002;5.468;2023-05-28T01:51:21;40.92;37.33;45.21;;
73342;Laerm;61578;52.002;5.468;2023-05-28T01:51:52;41.13;37.85;45.50;;
73342;Laerm;61578;52.002;5.468;2023-05-28T01:52:23;41.23;37.77;45.19;;
73342;Laerm;61578;52.002;5.468;2023-05-28T01:52:53;41.13;37.94;46.56;;
73342;Laerm;61578;52.002;5.468;2023-05-28T01:53:24;41.05;38.19;45.99;;
73342;Laerm;61578;52.002;5.468;2023-05-28T01:53:58;40.98;38.01;45.11;;
73342;Laerm;61578;52.002;5.468;2023-05-28T01:54:29;40.97;37.53;45.08;;
73342;Laerm;61578;52.002;5.468;2023-05-28T01:55:02;41.06;37.15;45.40;;
73342;Laerm;61578;52.002;5.468;2023-05-28T01:55:34;41.25;38.20;46.38;;
73342;Laerm;61578;52.002;5.468;2023-05-28T01:56:05;41.12;38.01;44.95;;
73342;Laerm;61578;52.002;5.468;2023-05-28T01:56:35;41.03;38.25;45.01;;
73342;Laerm;61578;52.002;5.468;2023-05-28T01:57:06;41.22;38.21;45.68;;
73342;Laerm;61578;52.002;5.468;2023-05-28T01:57:38;41.25;37.97;45.29;;
73342;Laerm;61578;52.002;5.468;2023-05-28T01:58:09;41.19;37.84;46.20;;
73342;Laerm;61578;52.002;5.468;2023-05-28T01:58:39;41.18;38.07;45.04;;
73342;Laerm;61578;52.002;5.468;2023-05-28T01:59:10;41.19;38.17;45.17;;
73342;Laerm;61578;52.002;5.468;2023-05-28T01:59:44;41.09;37.86;45.19;;
73342;Laerm;61578;52.002;5.468;2023-05-28T02:00:15;41.03;37.86;45.13;;
73342;Laerm;61578;52.002;5.468;2023-05-28T02:01:14;41.19;38.03;46.55;;
73342;Laerm;61578;52.002;5.468;2023-05-28T02:01:46;41.24;37.85;45.31;;
73342;Laerm;61578;52.002;5.468;2023-05-28T02:02:18;41.01;38.11;45.05;;
73342;Laerm;61578;52.002;5.468;2023-05-28T02:02:51;41.33;38.30;45.07;;
73342;Laerm;61578;52.002;5.468;2023-05-28T02:03:22;41.11;38.43;46.02;;
73342;Laerm;61578;52.002;5.468;2023-05-28T02:03:54;41.40;38.43;46.82;;
73342;Laerm;61578;52.002;5.468;2023-05-28T02:04:28;41.18;37.91;45.60;;
73342;Laerm;61578;52.002;5.468;2023-05-28T02:04:59;41.18;37.81;46.05;;
73342;Laerm;61578;52.002;5.468;2023-05-28T02:05:29;41.18;38.06;46.09;;
73342;Laerm;61578;52.002;5.468;2023-05-28T02:06:00;41.08;38.22;46.32;;
73342;Laerm;61578;52.002;5.468;2023-05-28T02:06:33;41.05;38.12;44.78;;
73342;Laerm;61578;52.002;5.468;2023-05-28T02:07:04;41.25;37.92;45.72;;
73342;Laerm;61578;52.002;5.468;2023-05-28T02:07:36;41.03;37.96;45.93;;
73342;Laerm;61578;52.002;5.468;2023-05-28T02:08:07;41.13;37.93;45.03;;
73342;Laerm;61578;52.002;5.468;2023-05-28T02:08:37;41.08;37.69;44.83;;
73342;Laerm;61578;52.002;5.468;2023-05-28T02:09:08;41.11;38.54;45.96;;
73342;Laerm;61578;52.002;5.468;2023-05-28T02:09:39;41.09;37.26;45.32;;
73342;Laerm;61578;52.002;5.468;2023-05-28T02:10:09;41.23;38.00;46.47;;
73342;Laerm;61578;52.002;5.468;2023-05-28T02:10:42;41.14;38.02;45.81;;
73342;Laerm;61578;52.002;5.468;2023-05-28T02:11:13;41.09;38.13;46.04;;
73342;Laerm;61578;52.002;5.468;2023-05-28T02:11:43;41.06;38.28;44.62;;
73342;Laerm;61578;52.002;5.468;2023-05-28T02:12:14;41.23;38.25;45.45;;
73342;Laerm;61578;52.002;5.468;2023-05-28T02:12:46;41.04;38.21;45.30;;
73342;Laerm;61578;52.002;5.468;2023-05-28T02:13:19;41.09;37.96;45.82;;
73342;Laerm;61578;52.002;5.468;2023-05-28T02:13:50;41.16;38.35;45.96;;
73342;Laerm;61578;52.002;5.468;2023-05-28T02:14:22;40.93;38.33;45.21;;
73342;Laerm;61578;52.002;5.468;2023-05-28T02:14:53;41.16;38.37;45.08;;
73342;Laerm;61578;52.002;5.468;2023-05-28T02:15:23;41.03;37.51;44.89;;
73342;Laerm;61578;52.002;5.468;2023-05-28T02:15:55;41.14;38.13;46.38;;
73342;Laerm;61578;52.002;5.468;2023-05-28T02:16:25;41.02;38.06;44.94;;
73342;Laerm;61578;52.002;5.468;2023-05-28T02:17:00;41.07;38.46;44.89;;
73342;Laerm;61578;52.002;5.468;2023-05-28T02:17:33;41.24;38.17;46.24;;
73342;Laerm;61578;52.002;5.468;2023-05-28T02:18:05;41.17;38.17;45.20;;
73342;Laerm;61578;52.002;5.468;2023-05-28T02:18:36;41.15;38.17;45.73;;
73342;Laerm;61578;52.002;5.468;2023-05-28T02:19:08;41.34;38.67;45.44;;
73342;Laerm;61578;52.002;5.468;2023-05-28T02:19:38;41.17;37.91;44.97;;
73342;Laerm;61578;52.002;5.468;2023-05-28T02:20:10;41.15;38.32;45.31;;
73342;Laerm;61578;52.002;5.468;2023-05-28T02:20:42;41.18;38.30;45.61;;
73342;Laerm;61578;52.002;5.468;2023-05-28T02:21:13;41.15;38.25;44.80;;
73342;Laerm;61578;52.002;5.468;2023-05-28T02:21:44;41.05;38.39;45.81;;
73342;Laerm;61578;52.002;5.468;2023-05-28T02:22:14;41.07;37.54;45.08;;
73342;Laerm;61578;52.002;5.468;2023-05-28T02:22:45;41.04;37.92;45.84;;
73342;Laerm;61578;52.002;5.468;2023-05-28T02:23:16;41.21;38.10;46.34;;
73342;Laerm;61578;52.002;5.468;2023-05-28T02:23:48;41.09;37.65;45.10;;
73342;Laerm;61578;52.002;5.468;2023-05-28T02:24:19;41.03;38.07;45.06;;
73342;Laerm;61578;52.002;5.468;2023-05-28T02:24:50;41.16;38.31;45.84;;
73342;Laerm;61578;52.002;5.468;2023-05-28T02:25:21;41.21;38.15;45.30;;
73342;Laerm;61578;52.002;5.468;2023-05-28T02:25:57;41.31;37.78;46.08;;
73342;Laerm;61578;52.002;5.468;2023-05-28T02:26:28;41.04;37.84;46.64;;
73342;Laerm;61578;52.002;5.468;2023-05-28T02:27:06;41.22;38.42;45.56;;
73342;Laerm;61578;52.002;5.468;2023-05-28T02:27:37;41.37;38.63;45.61;;
73342;Laerm;61578;52.002;5.468;2023-05-28T02:28:08;41.70;38.74;46.88;;
73342;Laerm;61578;52.002;5.468;2023-05-28T02:28:40;41.58;38.48;46.01;;
73342;Laerm;61578;52.002;5.468;2023-05-28T02:29:14;41.66;38.58;47.11;;
73342;Laerm;61578;52.002;5.468;2023-05-28T02:29:45;42.21;38.39;48.33;;
73342;Laerm;61578;52.002;5.468;2023-05-28T02:30:18;43.40;38.09;54.51;;
73342;Laerm;61578;52.002;5.468;2023-05-28T02:30:48;44.34;38.37;55.90;;
73342;Laerm;61578;52.002;5.468;2023-05-28T02:31:19;45.41;38.45;58.20;;
73342;Laerm;61578;52.002;5.468;2023-05-28T02:31:50;45.29;38.72;57.10;;
73342;Laerm;61578;52.002;5.468;2023-05-28T02:32:21;45.30;39.02;57.31;;
73342;Laerm;61578;52.002;5.468;2023-05-28T02:32:53;44.96;38.48;56.77;;
73342;Laerm;61578;52.002;5.468;2023-05-28T02:33:25;44.91;38.49;54.84;;
73342;Laerm;61578;52.002;5.468;2023-05-28T02:33:56;46.24;38.96;58.23;;
73342;Laerm;61578;52.002;5.468;2023-05-28T02:34:29;45.63;38.97;56.27;;
73342;Laerm;61578;52.002;5.468;2023-05-28T02:35:00;43.94;39.16;55.42;;
73342;Laerm;61578;52.002;5.468;2023-05-28T02:35:32;42.27;38.74;48.22;;
73342;Laerm;61578;52.002;5.468;2023-05-28T02:36:03;42.49;39.08;50.32;;
73342;Laerm;61578;52.002;5.468;2023-05-28T02:36:34;42.72;39.04;50.29;;
73342;Laerm;61578;52.002;5.468;2023-05-28T02:37:06;42.88;39.00;50.20;;
73342;Laerm;61578;52.002;5.468;2023-05-28T02:37:36;43.03;38.30;51.51;;
73342;Laerm;61578;52.002;5.468;2023-05-28T02:38:07;42.95;38.41;51.98;;
73342;Laerm;61578;52.002;5.468;2023-05-28T02:38:40;43.20;39.08;49.78;;
73342;Laerm;61578;52.002;5.468;2023-05-28T02:39:11;42.83;38.85;49.12;;
73342;Laerm;61578;52.002;5.468;2023-05-28T02:39:42;42.96;39.40;51.22;;
73342;Laerm;61578;52.002;5.468;2023-05-28T02:40:13;43.06;38.83;50.93;;
73342;Laerm;61578;52.002;5.468;2023-05-28T02:40:43;43.01;38.83;51.49;;
73342;Laerm;61578;52.002;5.468;2023-05-28T02:41:14;41.97;38.97;48.32;;
73342;Laerm;61578;52.002;5.468;2023-05-28T02:41:45;43.10;38.22;51.69;;
73342;Laerm;61578;52.002;5.468;2023-05-28T02:42:15;43.30;38.46;52.60;;
73342;Laerm;61578;52.002;5.468;2023-05-28T02:42:46;43.62;38.69;53.31;;
73342;Laerm;61578;52.002;5.468;2023-05-28T02:43:20;43.95;38.81;56.23;;
73342;Laerm;61578;52.002;5.468;2023-05-28T02:43:50;43.42;39.25;54.54;;
73342;Laerm;61578;52.002;5.468;2023-05-28T02:44:22;43.73;39.37;53.04;;
73342;Laerm;61578;52.002;5.468;2023-05-28T02:44:55;43.43;39.54;51.81;;
73342;Laerm;61578;52.002;5.468;2023-05-28T02:45:26;44.46;39.02;53.67;;
73342;Laerm;61578;52.002;5.468;2023-05-28T02:45:56;45.92;39.41;54.43;;
73342;Laerm;61578;52.002;5.468;2023-05-28T02:46:27;46.39;38.92;56.36;;
73342;Laerm;61578;52.002;5.468;2023-05-28T02:46:58;45.84;39.45;54.50;;
73342;Laerm;61578;52.002;5.468;2023-05-28T02:47:28;46.95;39.67;57.70;;
73342;Laerm;61578;52.002;5.468;2023-05-28T02:47:59;46.23;38.78;57.89;;
73342;Laerm;61578;52.002;5.468;2023-05-28T02:48:30;46.54;38.97;56.00;;
73342;Laerm;61578;52.002;5.468;2023-05-28T02:49:01;46.21;39.02;58.12;;
73342;Laerm;61578;52.002;5.468;2023-05-28T02:49:32;46.14;39.60;57.73;;
73342;Laerm;61578;52.002;5.468;2023-05-28T02:50:03;46.41;38.86;55.12;;
73342;Laerm;61578;52.002;5.468;2023-05-28T02:50:34;46.06;39.29;55.69;;
73342;Laerm;61578;52.002;5.468;2023-05-28T02:51:04;45.90;38.65;56.01;;
73342;Laerm;61578;52.002;5.468;2023-05-28T02:51:35;46.19;39.11;57.12;;
73342;Laerm;61578;52.002;5.468;2023-05-28T02:52:06;45.82;38.92;55.84;;
73342;Laerm;61578;52.002;5.468;2023-05-28T02:52:36;45.72;39.21;55.44;;
73342;Laerm;61578;52.002;5.468;2023-05-28T02:53:07;45.58;38.92;55.92;;
73342;Laerm;61578;52.002;5.468;2023-05-28T02:53:38;45.99;38.87;55.75;;
73342;Laerm;61578;52.002;5.468;2023-05-28T02:54:08;45.94;39.30;56.35;;
73342;Laerm;61578;52.002;5.468;2023-05-28T02:54:39;46.77;39.53;58.69;;
73342;Laerm;61578;52.002;5.468;2023-05-28T02:55:15;46.68;39.23;57.79;;
73342;Laerm;61578;52.002;5.468;2023-05-28T02:55:46;46.60;38.83;58.69;;
73342;Laerm;61578;52.002;5.468;2023-05-28T02:56:18;46.24;39.16;59.57;;
73342;Laerm;61578;52.002;5.468;2023-05-28T02:56:49;46.66;38.54;57.22;;
73342;Laerm;61578;52.002;5.468;2023-05-28T02:57:20;45.25;39.29;55.27;;
73342;Laerm;61578;52.002;5.468;2023-05-28T02:57:51;43.74;38.55;52.94;;
73342;Laerm;61578;52.002;5.468;2023-05-28T02:58:23;45.90;39.03;58.74;;
73342;Laerm;61578;52.002;5.468;2023-05-28T02:58:57;44.75;39.10;54.46;;